Time;durP1;ratioP1;P1;durP2;ratioP2;P2;SDS_P1;SDS_P2;PMS_P1;PMS_P2;Temp;Humidity;BMP_temperature;BMP_pressure;BME280_temperature;BME280_humidity;BME280_pressure;Samples;Min_cycle;Max_cycle;Signal;HPM_P1;HPM_P2
2022/05/01 00:02:22;;;;;;;7.22;5.07;;;;;;;12.04;61.29;99469.44;5004996;28;20030;-82
2022/05/01 00:04:48;;;;;;;4.60;4.20;;;;;;;12.07;60.37;99476.19;4986882;28;20033;-82
2022/05/01 00:07:13;;;;;;;5.03;4.30;;;;;;;12.10;60.58;99467.69;5003034;28;20386;-82
2022/05/01 00:09:40;;;;;;;7.03;4.38;;;;;;;12.07;60.44;99465.47;5008169;28;20025;-82
2022/05/01 00:12:07;;;;;;;4.82;4.03;;;;;;;12.07;60.83;99473.50;5025888;28;20112;-82
2022/05/01 00:14:33;;;;;;;4.97;3.65;;;;;;;12.17;60.86;99471.81;5000647;28;20033;-82
2022/05/01 00:16:58;;;;;;;8.30;4.20;;;;;;;12.05;60.60;99471.09;4991899;28;20091;-82
2022/05/01 00:19:23;;;;;;;5.88;4.05;;;;;;;11.99;61.14;99466.72;5002479;28;20401;-82
2022/05/01 00:21:49;;;;;;;4.22;3.75;;;;;;;11.94;61.35;99472.78;4988456;28;20055;-82
2022/05/01 00:24:14;;;;;;;7.20;3.53;;;;;;;11.91;60.95;99453.72;5025930;28;20481;-82
2022/05/01 00:26:39;;;;;;;5.97;3.85;;;;;;;12.00;60.71;99477.16;4997658;28;20045;-82
2022/05/01 00:29:05;;;;;;;5.45;4.03;;;;;;;12.06;60.98;99466.56;4989922;28;20037;-82
2022/05/01 00:31:31;;;;;;;6.43;4.25;;;;;;;11.97;60.61;99464.25;5029358;28;20029;-82
2022/05/01 00:36:40;;;;;;;5.68;4.25;;;;;;;12.07;60.44;99468.16;5008320;28;20467;-82
2022/05/01 00:39:07;;;;;;;7.28;3.92;;;;;;;12.01;60.93;99457.34;5025960;28;20025;-82
2022/05/01 00:41:38;;;;;;;4.90;4.10;;;;;;;11.92;60.72;99461.50;5028366;28;20033;-82
2022/05/01 00:44:12;;;;;;;4.70;4.28;;;;;;;11.98;60.60;99462.41;5022063;28;20025;-82
2022/05/01 00:46:41;;;;;;;6.03;3.90;;;;;;;11.93;60.58;99459.63;5013112;28;20033;-82
2022/05/01 00:49:08;;;;;;;6.40;4.20;;;;;;;11.95;61.06;99460.19;4989111;28;20530;-82
2022/05/01 00:51:42;;;;;;;4.63;3.92;;;;;;;11.85;61.05;99470.72;5007400;28;20108;-82
2022/05/01 00:54:08;;;;;;;6.60;4.93;;;;;;;11.89;61.26;99467.34;5005839;28;20064;-82
2022/05/01 00:56:41;;;;;;;6.53;3.83;;;;;;;11.88;60.88;99462.25;4993595;28;20199;-82
2022/05/01 00:59:07;;;;;;;6.72;4.25;;;;;;;11.90;61.13;99463.59;5005452;28;20029;-82
2022/05/01 01:01:33;;;;;;;6.30;3.85;;;;;;;11.88;60.58;99463.03;5004241;28;20478;-82
2022/05/01 01:03:59;;;;;;;4.28;3.88;;;;;;;11.90;60.63;99460.91;5011697;28;20028;-82
2022/05/01 01:06:24;;;;;;;6.50;4.13;;;;;;;11.88;61.20;99465.69;5025417;28;20030;-82
2022/05/01 01:08:50;;;;;;;10.88;4.70;;;;;;;11.89;61.07;99463.84;5008230;28;20111;-82
2022/05/01 01:11:15;;;;;;;5.70;4.07;;;;;;;11.80;61.14;99466.09;4997990;28;20057;-82
2022/05/01 01:13:42;;;;;;;6.60;4.50;;;;;;;11.85;60.57;99466.19;5021841;28;20474;-82
2022/05/01 01:16:09;;;;;;;5.68;4.22;;;;;;;11.80;60.99;99466.09;4995580;28;20126;-82
2022/05/01 01:18:34;;;;;;;6.28;4.22;;;;;;;11.75;61.53;99457.97;5004963;28;20128;-82
2022/05/01 01:20:59;;;;;;;6.47;4.60;;;;;;;11.82;60.49;99458.66;4972873;28;20029;-82
2022/05/01 01:23:25;;;;;;;7.40;4.10;;;;;;;11.79;61.16;99455.66;5010719;28;20120;-82
2022/05/01 01:25:51;;;;;;;4.15;3.75;;;;;;;11.78;60.59;99454.84;4991866;28;20033;-82
2022/05/01 01:28:18;;;;;;;7.97;4.28;;;;;;;11.77;61.02;99449.75;5006377;28;20029;-82
2022/05/01 01:33:29;;;;;;;7.28;4.50;;;;;;;11.83;60.91;99457.59;5028212;28;20060;-82
2022/05/01 01:35:56;;;;;;;6.28;4.88;;;;;;;11.76;60.63;99446.25;4992101;28;20108;-82
2022/05/01 01:38:22;;;;;;;5.65;4.75;;;;;;;11.78;61.17;99451.34;5031856;28;20465;-82
2022/05/01 01:40:48;;;;;;;6.32;4.28;;;;;;;11.74;61.43;99450.22;5007831;28;20041;-82
2022/05/01 01:43:17;;;;;;;4.72;4.22;;;;;;;11.77;61.00;99455.88;5007197;28;20057;-82
2022/05/01 01:45:43;;;;;;;8.70;4.45;;;;;;;11.71;61.01;99448.81;4996096;28;20090;-82
2022/05/01 01:48:13;;;;;;;5.03;3.88;;;;;;;11.77;60.74;99455.09;4988189;28;20421;-82
2022/05/01 01:50:39;;;;;;;5.45;4.53;;;;;;;11.85;60.27;99460.03;4989924;28;20033;-82
2022/05/01 01:53:06;;;;;;;5.90;4.13;;;;;;;11.77;61.04;99463.91;5006282;28;20108;-82
2022/05/01 01:55:37;;;;;;;5.97;4.38;;;;;;;11.76;60.45;99462.28;5022130;28;20029;-82
2022/05/01 01:58:03;;;;;;;4.80;4.28;;;;;;;11.74;60.83;99460.91;4972073;28;20116;-82
2022/05/01 02:00:29;;;;;;;4.32;3.85;;;;;;;11.74;60.95;99452.88;5008963;28;20041;-82
2022/05/01 02:03:06;;;;;;;4.20;3.80;;;;;;;11.72;60.76;99461.16;4992028;28;20025;-82
2022/05/01 02:05:33;;;;;;;7.68;4.13;;;;;;;11.74;60.77;99458.22;5024449;28;20033;-82
2022/05/01 02:08:00;;;;;;;6.30;4.50;;;;;;;11.70;61.09;99462.44;5012878;28;20029;-82
2022/05/01 02:10:26;;;;;;;5.15;4.65;;;;;;;11.71;60.49;99467.53;5008670;28;20029;-82
2022/05/01 02:12:54;;;;;;;6.78;4.20;;;;;;;11.58;60.85;99446.41;5025650;28;20049;-82
2022/05/01 02:15:20;;;;;;;6.78;3.95;;;;;;;11.76;60.73;99453.44;4993421;28;20060;-82
2022/05/01 02:17:46;;;;;;;3.97;3.63;;;;;;;11.70;60.67;99455.25;4990222;28;20044;-82
2022/05/01 02:20:11;;;;;;;7.70;5.05;;;;;;;11.68;60.64;99448.50;5008032;28;20025;-82
2022/05/01 02:22:40;;;;;;;5.57;3.80;;;;;;;11.65;60.97;99446.28;5026696;28;20032;-82
2022/05/01 02:25:07;;;;;;;4.68;4.28;;;;;;;11.67;60.60;99444.19;5008357;28;20459;-82
2022/05/01 02:27:33;;;;;;;6.95;4.13;;;;;;;11.67;60.78;99438.84;4989707;28;20030;-82
2022/05/01 02:29:59;;;;;;;5.40;4.88;;;;;;;11.55;60.88;99443.41;4993033;28;20391;-82
2022/05/01 02:32:24;;;;;;;6.05;4.25;;;;;;;11.60;61.02;99448.88;5026192;28;20033;-82
2022/05/01 02:34:49;;;;;;;7.18;4.10;;;;;;;11.68;60.92;99451.19;4991261;28;20445;-82
2022/05/01 02:37:15;;;;;;;6.32;4.53;;;;;;;11.64;60.93;99450.78;5004404;28;20026;-82
2022/05/01 02:39:40;;;;;;;8.45;4.40;;;;;;;11.63;61.18;99449.19;4996127;28;20398;-82
2022/05/01 02:42:06;;;;;;;5.78;4.47;;;;;;;11.61;60.59;99445.13;5006473;28;20022;-82
2022/05/01 02:44:31;;;;;;;5.85;3.85;;;;;;;11.57;61.11;99441.31;5004098;28;20446;-82
2022/05/01 02:46:57;;;;;;;6.45;3.92;;;;;;;11.56;61.15;99448.53;4989241;28;20524;-82
2022/05/01 02:49:22;;;;;;;7.30;4.03;;;;;;;11.64;60.74;99445.44;5024443;28;20116;-82
2022/05/01 02:51:48;;;;;;;6.57;4.15;;;;;;;11.52;61.20;99439.38;5005135;28;20037;-82
2022/05/01 02:54:14;;;;;;;4.72;3.85;;;;;;;11.62;60.56;99438.75;5026881;28;20112;-82
2022/05/01 02:56:39;;;;;;;7.45;4.53;;;;;;;11.56;61.05;99437.81;5008686;28;20180;-82
2022/05/01 02:59:09;;;;;;;5.43;4.75;;;;;;;11.69;60.46;99442.91;4987598;28;20034;-82
2022/05/01 03:01:37;;;;;;;4.57;4.05;;;;;;;11.58;60.33;99443.75;4974886;28;20033;-82
2022/05/01 03:04:03;;;;;;;7.57;3.88;;;;;;;11.62;60.78;99449.44;5006140;28;20037;-82
2022/05/01 03:06:28;;;;;;;5.82;4.40;;;;;;;11.52;60.49;99439.38;5002692;28;20512;-82
2022/05/01 03:08:54;;;;;;;8.50;4.20;;;;;;;11.50;60.85;99449.47;4990504;28;20075;-82
2022/05/01 03:11:19;;;;;;;8.35;4.85;;;;;;;11.59;60.40;99440.03;4977827;28;20030;-82
2022/05/01 03:13:45;;;;;;;4.82;3.58;;;;;;;11.64;60.07;99445.44;4992532;28;20034;-82
2022/05/01 03:16:10;;;;;;;6.22;4.28;;;;;;;11.57;60.52;99438.66;5029266;28;20032;-82
2022/05/01 03:24:03;;;;;;;7.53;4.03;;;;;;;11.51;60.88;99434.25;5019574;28;20056;-85
2022/05/01 03:26:29;;;;;;;5.13;4.00;;;;;;;11.58;60.49;99440.25;4989673;28;20474;-85
2022/05/01 03:28:55;;;;;;;6.25;4.63;;;;;;;11.48;60.55;99435.56;5004770;28;20112;-85
2022/05/01 03:31:20;;;;;;;7.60;4.25;;;;;;;11.55;60.48;99438.91;5024584;28;20500;-85
2022/05/01 03:33:45;;;;;;;4.97;3.50;;;;;;;11.54;60.42;99444.47;5009873;28;20030;-85
2022/05/01 03:36:11;;;;;;;5.40;4.35;;;;;;;11.40;60.49;99443.94;4996775;28;20100;-85
2022/05/01 03:38:38;;;;;;;5.78;4.68;;;;;;;11.52;60.62;99438.53;4991898;28;20034;-85
2022/05/01 03:41:05;;;;;;;7.45;3.97;;;;;;;11.51;60.29;99436.94;4994408;28;20111;-85
2022/05/01 03:43:35;;;;;;;6.00;4.25;;;;;;;11.47;60.09;99439.25;5013620;28;20033;-85
2022/05/01 03:46:01;;;;;;;5.90;4.78;;;;;;;11.44;60.23;99428.25;4990073;28;20030;-85
2022/05/01 03:48:27;;;;;;;7.55;4.55;;;;;;;11.51;59.68;99436.94;5006802;28;20051;-85
2022/05/01 03:50:53;;;;;;;4.93;4.43;;;;;;;11.41;60.42;99442.06;5021412;28;20029;-85
2022/05/01 03:53:19;;;;;;;5.65;5.07;;;;;;;11.39;60.45;99426.28;4995513;28;20164;-85
2022/05/01 03:55:45;;;;;;;5.70;3.53;;;;;;;11.58;59.78;99438.41;5019088;28;20075;-85
2022/05/01 03:58:10;;;;;;;5.72;4.13;;;;;;;11.44;60.62;99438.94;5028193;28;20171;-85
2022/05/01 04:00:35;;;;;;;4.82;3.65;;;;;;;11.44;60.18;99441.63;5009268;28;21053;-85
2022/05/01 04:03:01;;;;;;;4.70;4.18;;;;;;;11.33;60.40;99429.94;5027419;28;20018;-85
2022/05/01 04:05:26;;;;;;;4.70;3.75;;;;;;;11.29;60.08;99426.13;4992916;28;20167;-85
2022/05/01 04:07:52;;;;;;;6.28;3.88;;;;;;;11.45;60.00;99432.53;5009600;28;20100;-85
2022/05/01 04:10:17;;;;;;;4.93;3.95;;;;;;;11.31;60.34;99430.13;4989312;28;20128;-85
2022/05/01 04:12:44;;;;;;;6.43;4.60;;;;;;;11.41;60.52;99439.41;4991773;28;20441;-85
2022/05/01 04:15:11;;;;;;;4.45;3.78;;;;;;;11.52;59.65;99438.53;4993784;28;20033;-85
2022/05/01 04:17:39;;;;;;;3.58;3.28;;;;;;;11.44;60.20;99437.09;5020259;28;20064;-85
2022/05/01 04:20:12;;;;;;;5.85;3.95;;;;;;;11.44;59.68;99442.44;5010274;28;20037;-85
2022/05/01 04:22:37;;;;;;;4.50;4.07;;;;;;;11.37;60.05;99441.75;5006889;28;20071;-85
2022/05/01 04:25:05;;;;;;;6.28;4.50;;;;;;;11.50;59.85;99449.47;5025238;28;20057;-86
2022/05/01 04:27:30;;;;;;;5.07;4.07;;;;;;;11.39;60.08;99446.84;5001149;28;20037;-86
2022/05/01 04:29:55;;;;;;;5.53;4.10;;;;;;;11.32;60.51;99455.00;4975448;28;20124;-86
2022/05/01 04:32:21;;;;;;;5.78;3.80;;;;;;;11.36;60.59;99450.81;5008033;28;20492;-85
2022/05/01 04:34:46;;;;;;;7.80;4.47;;;;;;;11.44;60.10;99434.41;4991015;28;20038;-85
2022/05/01 04:37:12;;;;;;;4.68;4.10;;;;;;;11.26;60.10;99431.94;4991799;28;20538;-85
2022/05/01 04:39:37;;;;;;;11.80;4.03;;;;;;;11.43;60.03;99446.13;5002582;28;20092;-85
2022/05/01 04:42:02;;;;;;;4.88;4.25;;;;;;;11.31;60.42;99432.03;4971360;28;20378;-85
2022/05/01 04:44:28;;;;;;;4.60;3.97;;;;;;;11.46;60.27;99439.50;5007959;28;20034;-85
2022/05/01 04:46:53;;;;;;;9.27;4.43;;;;;;;11.41;59.78;99442.06;4987695;28;20053;-85
2022/05/01 04:49:18;;;;;;;7.60;4.10;;;;;;;11.36;60.20;99426.75;5008110;28;20477;-85
2022/05/01 04:51:44;;;;;;;5.40;3.75;;;;;;;11.36;60.29;99442.78;5026639;28;20038;-85
2022/05/01 04:54:09;;;;;;;7.38;4.63;;;;;;;11.42;59.96;99443.72;4993650;28;20030;-85
2022/05/01 04:59:19;;;;;;;8.15;4.60;;;;;;;11.29;60.30;99447.50;5011132;28;20071;-85
2022/05/01 05:01:44;;;;;;;5.70;4.50;;;;;;;11.37;60.25;99440.94;4990784;28;20045;-85
2022/05/01 05:04:09;;;;;;;6.72;4.38;;;;;;;11.38;60.22;99445.25;4981484;28;20476;-85
2022/05/01 05:06:35;;;;;;;4.90;4.35;;;;;;;11.37;60.08;99449.78;4987402;28;20474;-85
2022/05/01 05:11:44;;;;;;;6.70;4.72;;;;;;;11.37;60.36;99444.44;5011600;28;20083;-85
2022/05/01 05:14:09;;;;;;;8.32;4.72;;;;;;;11.36;60.31;99445.47;5007918;28;20029;-85
2022/05/01 05:16:35;;;;;;;6.38;4.90;;;;;;;11.43;60.47;99448.81;4984613;28;20121;-85
2022/05/01 05:19:00;;;;;;;5.88;4.50;;;;;;;11.32;60.50;99445.16;4971737;28;20478;-85
2022/05/01 05:21:26;;;;;;;7.07;4.68;;;;;;;11.29;60.25;99447.50;5011698;28;20052;-85
2022/05/01 05:23:51;;;;;;;6.97;4.18;;;;;;;11.26;60.11;99448.78;4993032;28;20037;-85
2022/05/01 05:26:16;;;;;;;5.70;4.70;;;;;;;11.31;60.63;99466.78;4994674;28;20084;-85
2022/05/01 05:28:42;;;;;;;9.65;4.43;;;;;;;11.24;60.63;99458.88;5018546;28;20045;-85
2022/05/01 05:31:07;;;;;;;5.43;4.68;;;;;;;11.38;60.72;99464.75;4993750;28;20389;-85
2022/05/01 05:33:32;;;;;;;10.02;5.03;;;;;;;11.30;60.70;99462.47;5010884;28;20056;-85
2022/05/01 05:35:58;;;;;;;7.15;4.75;;;;;;;11.30;60.61;99465.13;4999884;28;20117;-85
2022/05/01 05:38:23;;;;;;;6.93;4.85;;;;;;;11.40;60.19;99468.00;4982809;28;20082;-86
2022/05/01 05:40:48;;;;;;;8.27;3.72;;;;;;;11.40;60.98;99472.53;4978333;28;20032;-85
2022/05/01 05:43:13;;;;;;;7.30;4.38;;;;;;;11.37;60.82;99481.03;4981502;28;20026;-85
2022/05/01 05:45:39;;;;;;;6.10;4.18;;;;;;;11.42;60.35;99473.94;4991174;28;20025;-85
2022/05/01 05:48:05;;;;;;;5.25;4.72;;;;;;;11.33;60.66;99475.34;5004015;28;20389;-85
2022/05/01 05:50:30;;;;;;;5.43;4.93;;;;;;;11.43;60.49;99475.53;5008908;28;20116;-85
2022/05/01 05:52:55;;;;;;;6.80;4.60;;;;;;;11.46;59.92;99475.06;5026705;28;20417;-85
2022/05/01 05:55:21;;;;;;;8.20;4.07;;;;;;;11.29;60.38;99474.22;4977432;28;20037;-85
2022/05/01 05:57:46;;;;;;;6.47;4.45;;;;;;;11.25;60.95;99475.72;4975590;28;20033;-85
2022/05/01 06:00:12;;;;;;;7.03;4.35;;;;;;;11.36;60.84;99466.06;5004318;28;20033;-85
2022/05/01 06:02:37;;;;;;;6.40;3.85;;;;;;;11.36;61.02;99490.91;5029253;28;20473;-85
2022/05/01 06:05:03;;;;;;;11.20;4.90;;;;;;;11.37;60.57;99487.19;4992317;28;20451;-85
2022/05/01 06:07:29;;;;;;;4.85;4.35;;;;;;;11.41;60.77;99488.34;5003874;28;20025;-85
2022/05/01 06:09:54;;;;;;;5.55;5.00;;;;;;;11.41;61.06;99490.19;4989444;28;20078;-85
2022/05/01 06:12:19;;;;;;;7.00;4.60;;;;;;;11.33;60.73;99491.41;4994202;28;20040;-85
2022/05/01 06:14:45;;;;;;;6.55;4.80;;;;;;;11.40;60.51;99478.69;4991578;28;20642;-85
2022/05/01 06:17:11;;;;;;;9.93;5.50;;;;;;;11.43;60.79;99488.09;5008604;28;20044;-85
2022/05/01 06:19:36;;;;;;;6.22;5.05;;;;;;;11.32;60.89;99493.25;5022327;28;21717;-85
2022/05/01 06:22:01;;;;;;;7.93;4.40;;;;;;;11.40;60.63;99491.25;4977648;28;20092;-86
2022/05/01 06:24:27;;;;;;;6.25;4.68;;;;;;;11.38;60.82;99490.69;5024459;28;20025;-86
2022/05/01 06:26:52;;;;;;;6.90;5.40;;;;;;;11.41;61.34;99491.00;4973893;28;20038;-85
2022/05/01 06:29:17;;;;;;;6.15;4.63;;;;;;;11.41;61.00;99482.16;5005646;28;20379;-85
2022/05/01 06:31:43;;;;;;;4.97;4.47;;;;;;;11.52;60.58;99492.81;4975464;28;20041;-85
2022/05/01 06:34:10;;;;;;;5.50;4.93;;;;;;;11.47;60.68;99500.75;5027911;28;20375;-85
2022/05/01 06:36:36;;;;;;;9.40;5.13;;;;;;;11.47;60.81;99502.59;4984333;28;20044;-85
2022/05/01 06:39:01;;;;;;;7.57;5.18;;;;;;;11.35;61.48;99512.53;5003914;28;20144;-85
2022/05/01 06:41:27;;;;;;;7.90;5.78;;;;;;;11.42;61.51;99510.53;5005252;28;20083;-85
2022/05/01 06:43:52;;;;;;;6.93;5.03;;;;;;;11.62;60.98;99502.91;5004415;28;20562;-86
2022/05/01 06:46:17;;;;;;;7.00;4.53;;;;;;;11.47;60.88;99503.41;4987499;28;20044;-85
2022/05/01 06:48:42;;;;;;;7.75;5.47;;;;;;;11.50;60.94;99499.47;4978076;28;20146;-85
2022/05/01 06:51:08;;;;;;;7.93;5.32;;;;;;;11.50;61.15;99494.13;4979794;28;20104;-85
2022/05/01 06:53:33;;;;;;;6.80;5.13;;;;;;;11.54;60.94;99505.94;5004440;28;20087;-85
2022/05/01 06:55:58;;;;;;;7.88;4.78;;;;;;;11.54;61.41;99500.59;4976493;28;20041;-85
2022/05/01 06:58:24;;;;;;;5.20;4.70;;;;;;;11.49;60.93;99501.31;4985005;28;20025;-85
2022/05/01 07:00:51;;;;;;;5.72;4.80;;;;;;;11.53;61.15;99510.47;5003548;28;20037;-85
2022/05/01 07:03:17;;;;;;;10.25;5.85;;;;;;;11.55;61.11;99513.75;4987809;28;20030;-85
2022/05/01 07:05:42;;;;;;;11.38;6.15;;;;;;;11.55;61.43;99504.91;5022299;28;20033;-85
2022/05/01 07:08:08;;;;;;;12.48;6.20;;;;;;;11.54;61.16;99512.13;4985790;28;20061;-85
2022/05/01 07:10:33;;;;;;;8.85;6.55;;;;;;;11.56;61.16;99503.84;4989085;28;20212;-85
2022/05/01 07:12:58;;;;;;;7.93;5.55;;;;;;;11.67;61.14;99500.34;4988582;28;20076;-85
2022/05/01 07:15:24;;;;;;;7.75;5.82;;;;;;;11.62;60.81;99506.38;5009198;28;20091;-85
2022/05/01 07:17:49;;;;;;;12.88;6.53;;;;;;;11.52;61.37;99511.53;5010197;28;20029;-85
2022/05/01 07:20:14;;;;;;;9.70;6.70;;;;;;;11.55;61.16;99500.38;4991182;28;20037;-85
2022/05/01 07:22:39;;;;;;;10.07;6.13;;;;;;;11.65;61.63;99518.47;4976260;28;20124;-85
2022/05/01 07:25:05;;;;;;;8.23;6.05;;;;;;;11.74;60.86;99523.22;4993232;28;20061;-85
2022/05/01 07:27:31;;;;;;;7.70;5.97;;;;;;;11.54;61.76;99520.13;4992264;28;20435;-85
2022/05/01 07:29:56;;;;;;;16.80;6.72;;;;;;;11.52;61.61;99521.41;5005605;28;20083;-85
2022/05/01 07:32:21;;;;;;;8.45;5.90;;;;;;;11.74;60.88;99515.22;5012110;28;20504;-85
2022/05/01 07:34:47;;;;;;;8.02;5.45;;;;;;;11.55;61.60;99513.75;4992702;28;20057;-85
2022/05/01 07:37:14;;;;;;;8.13;6.43;;;;;;;11.66;61.34;99518.25;4992879;28;21200;-85
2022/05/01 07:39:39;;;;;;;6.78;5.57;;;;;;;11.67;61.45;99519.06;4981079;28;20057;-85
2022/05/01 07:42:05;;;;;;;8.45;5.72;;;;;;;11.53;62.07;99515.03;5008470;28;20037;-85
2022/05/01 07:44:30;;;;;;;8.23;6.38;;;;;;;11.65;61.86;99526.47;4991867;28;20067;-85
2022/05/01 07:46:55;;;;;;;7.30;5.32;;;;;;;11.67;61.14;99519.88;5007008;28;20405;-85
2022/05/01 07:49:21;;;;;;;7.18;5.05;;;;;;;11.66;61.82;99528.13;4991885;28;20123;-85
2022/05/01 07:51:47;;;;;;;8.57;5.80;;;;;;;11.71;61.71;99525.56;4992042;28;20033;-85
2022/05/01 07:54:12;;;;;;;7.10;5.82;;;;;;;11.77;61.10;99514.72;5026238;28;20104;-84
2022/05/01 07:56:38;;;;;;;10.25;6.55;;;;;;;11.87;61.43;99524.78;4994295;28;20108;-85
2022/05/01 07:59:04;;;;;;;6.63;5.18;;;;;;;11.82;61.46;99528.19;5007191;28;20503;-85
2022/05/01 08:01:29;;;;;;;6.07;5.47;;;;;;;11.76;61.54;99514.97;5028471;28;20028;-85
2022/05/01 08:06:38;;;;;;;10.55;5.78;;;;;;;11.93;61.13;99526.50;5025117;28;20180;-86
2022/05/01 08:09:04;;;;;;;15.45;6.63;;;;;;;11.91;61.83;99532.09;4966817;28;20120;-86
2022/05/01 08:11:29;;;;;;;16.75;6.57;;;;;;;11.80;61.96;99524.13;4991909;28;20171;-86
2022/05/01 08:13:55;;;;;;;11.05;6.57;;;;;;;11.86;61.99;99532.00;5008166;28;20393;-86
2022/05/01 08:16:21;;;;;;;10.98;6.68;;;;;;;11.93;61.63;99527.31;5032398;28;20041;-87
2022/05/01 08:21:32;;;;;;;11.68;6.40;;;;;;;11.94;61.52;99531.63;5006995;28;20052;-86
2022/05/01 08:23:59;;;;;;;9.80;6.30;;;;;;;11.98;61.98;99535.44;5006311;28;20021;-87
2022/05/01 08:26:24;;;;;;;7.60;6.25;;;;;;;12.05;61.53;99527.28;5026533;28;21698;-87
2022/05/01 08:28:54;;;;;;;9.13;5.95;;;;;;;12.03;61.76;99524.03;4994790;28;20037;-87
2022/05/01 08:31:20;;;;;;;7.03;6.00;;;;;;;12.11;61.29;99530.84;4994042;28;20057;-87
2022/05/01 08:33:45;;;;;;;9.38;6.50;;;;;;;12.12;61.82;99535.16;5007926;28;20064;-87
2022/05/01 08:36:11;;;;;;;8.85;7.15;;;;;;;12.10;61.82;99529.22;5011047;28;20038;-87
2022/05/01 08:38:39;;;;;;;10.18;6.20;;;;;;;12.03;62.00;99524.81;5011182;28;20112;-87
2022/05/01 08:41:06;;;;;;;11.95;6.82;;;;;;;12.17;61.84;99529.84;4995221;28;20033;-87
2022/05/01 08:43:32;;;;;;;7.63;6.22;;;;;;;12.29;61.39;99533.28;5003949;28;20036;-87
2022/05/01 08:46:19;;;;;;;11.65;6.68;;;;;;;12.32;61.66;99532.81;5002476;28;20536;-87
2022/05/01 08:49:01;;;;;;;9.30;6.15;;;;;;;12.33;61.40;99531.75;5026199;28;20064;-87
2022/05/01 08:51:30;;;;;;;9.82;6.28;;;;;;;12.36;61.68;99529.38;5010486;28;20489;-87
2022/05/01 08:53:58;;;;;;;10.40;6.20;;;;;;;12.46;61.09;99526.06;5027915;28;20037;-87
2022/05/01 08:56:24;;;;;;;6.40;5.32;;;;;;;12.46;60.87;99515.38;5005837;28;20089;-88
2022/05/01 08:58:50;;;;;;;9.70;6.10;;;;;;;12.46;61.47;99518.03;4963429;28;20028;-87
2022/05/01 09:01:16;;;;;;;12.32;7.20;;;;;;;12.57;60.92;99522.50;4995680;28;20029;-87
2022/05/01 09:03:44;;;;;;;7.18;5.60;;;;;;;12.62;61.22;99528.72;5006238;28;20034;-87
2022/05/01 09:06:09;;;;;;;7.20;6.20;;;;;;;12.61;60.93;99516.41;5009560;28;20029;-88
2022/05/01 09:08:37;;;;;;;9.90;6.20;;;;;;;12.71;60.77;99511.19;5009916;28;20087;-87
2022/05/01 09:12:49;;;;;;;8.82;6.65;;;;;;;12.80;60.75;99516.94;4993740;28;20075;-87
2022/05/01 09:13:48;;;;;;;6.53;5.80;;;;;;;12.84;60.91;99515.41;5004409;28;20040;-87
2022/05/01 09:16:13;;;;;;;11.13;6.68;;;;;;;12.91;60.60;99515.25;4995923;28;20404;-86
2022/05/01 09:18:43;;;;;;;14.18;5.97;;;;;;;13.03;60.67;99522.09;4990663;28;20037;-86
2022/05/01 09:21:09;;;;;;;7.75;5.93;;;;;;;13.10;60.55;99521.97;5004496;28;20057;-86
2022/05/01 09:23:42;;;;;;;9.88;5.82;;;;;;;13.19;60.42;99513.22;5004655;28;20069;-86
2022/05/01 09:26:09;;;;;;;7.97;5.30;;;;;;;13.20;60.37;99509.50;4987774;28;20029;-86
2022/05/01 09:28:36;;;;;;;9.40;5.80;;;;;;;13.29;60.50;99517.91;5007466;28;20111;-86
2022/05/01 09:31:03;;;;;;;7.10;5.57;;;;;;;13.42;60.49;99514.84;5025688;28;20032;-86
2022/05/01 09:33:29;;;;;;;9.65;6.35;;;;;;;13.61;60.14;99512.66;5017794;28;20362;-86
2022/05/01 09:35:55;;;;;;;6.97;5.30;;;;;;;13.64;59.74;99515.66;4980873;28;20036;-86
2022/05/01 09:38:22;;;;;;;10.00;6.00;;;;;;;13.70;59.96;99511.13;5024271;28;20025;-85
2022/05/01 09:40:56;;;;;;;8.27;5.30;;;;;;;13.82;60.05;99506.44;5010775;28;20125;-85
2022/05/01 09:43:47;;;;;;;12.75;5.93;;;;;;;13.95;59.73;99508.72;5004519;28;20172;-85
2022/05/01 09:46:24;;;;;;;8.02;5.78;;;;;;;14.10;59.33;99514.22;4989624;28;20314;-85
2022/05/01 09:49:03;;;;;;;14.57;6.32;;;;;;;14.22;58.96;99512.19;5005811;28;20083;-86
2022/05/01 09:51:41;;;;;;;12.38;5.97;;;;;;;14.23;58.90;99501.19;5007503;28;20029;-86
2022/05/01 09:54:07;;;;;;;12.25;6.05;;;;;;;14.39;58.16;99507.53;5003095;28;20025;-86
2022/05/01 09:56:44;;;;;;;7.95;5.60;;;;;;;14.46;58.08;99505.41;5006727;28;20350;-86
2022/05/01 09:59:10;;;;;;;8.63;5.32;;;;;;;14.42;58.21;99507.00;5005546;28;20033;-86
2022/05/01 10:01:36;;;;;;;12.77;6.03;;;;;;;14.44;57.99;99498.72;5027490;28;20473;-86
2022/05/01 10:04:02;;;;;;;6.22;5.15;;;;;;;14.56;57.55;99500.13;4975847;28;20090;-86
2022/05/01 10:06:32;;;;;;;12.77;5.95;;;;;;;14.48;58.31;99502.50;5005515;28;20041;-86
2022/05/01 10:08:58;;;;;;;10.45;5.38;;;;;;;14.56;57.78;99497.47;5019573;28;20026;-86
2022/05/01 10:11:24;;;;;;;9.43;6.40;;;;;;;14.71;57.48;99494.88;4977042;28;20033;-86
2022/05/01 10:13:50;;;;;;;7.25;4.90;;;;;;;14.62;57.61;99499.09;5009399;28;20393;-86
2022/05/01 10:16:16;;;;;;;14.05;5.70;;;;;;;14.69;57.51;99485.44;5006208;28;20025;-86
2022/05/01 10:18:43;;;;;;;7.05;5.63;;;;;;;14.81;56.84;99494.91;5002430;28;20481;-86
2022/05/01 10:21:09;;;;;;;8.20;5.35;;;;;;;14.82;57.35;99480.44;4981888;28;20048;-86
2022/05/01 10:23:35;;;;;;;9.05;5.63;;;;;;;14.93;57.29;99487.47;5009938;28;20456;-86
2022/05/01 10:26:15;;;;;;;9.18;5.57;;;;;;;15.14;56.44;99492.94;5006863;28;20041;-86
2022/05/01 10:29:18;;;;;;;7.35;5.43;;;;;;;15.19;56.72;99490.28;4993672;28;20382;-86
2022/05/01 10:35:20;;;;;;;12.27;6.30;;;;;;;15.42;55.50;99482.56;5027179;28;20136;-85
2022/05/01 10:38:09;;;;;;;10.63;5.80;;;;;;;15.46;55.91;99477.50;5021818;28;20021;-86
2022/05/01 10:40:41;;;;;;;14.32;5.93;;;;;;;15.51;55.97;99480.19;5021661;28;20037;-85
2022/05/01 10:43:25;;;;;;;10.38;5.90;;;;;;;15.62;55.71;99479.16;5007252;28;20013;-86
2022/05/01 10:45:52;;;;;;;7.93;5.13;;;;;;;15.62;55.59;99468.38;5013124;28;21491;-85
2022/05/01 10:48:32;;;;;;;12.20;5.90;;;;;;;15.67;55.71;99453.06;4998871;28;20374;-86
2022/05/01 10:51:29;;;;;;;8.82;4.90;;;;;;;15.78;55.17;99451.19;5024449;28;20025;-86
2022/05/01 10:54:09;;;;;;;;;;;;;;;15.81;55.45;99449.88;5009457;28;20071;-86
2022/05/01 10:56:35;;;;;;;8.85;4.78;;;;;;;15.93;55.17;99453.09;5033619;28;20331;-85
2022/05/01 10:59:31;;;;;;;9.27;5.70;;;;;;;15.96;54.98;99453.38;4998130;28;20029;-86
2022/05/01 11:02:03;;;;;;;8.95;5.25;;;;;;;15.97;55.40;99454.97;5012047;28;20040;-86
2022/05/01 11:04:30;;;;;;;8.13;5.18;;;;;;;16.11;55.23;99444.50;4995363;28;20489;-86
2022/05/01 11:06:57;;;;;;;9.55;5.10;;;;;;;16.16;54.91;99447.97;5016328;28;20021;-86
2022/05/01 11:09:23;;;;;;;8.23;5.63;;;;;;;16.28;54.61;99455.78;5010779;28;20033;-86
2022/05/01 11:11:57;;;;;;;8.70;4.70;;;;;;;16.47;54.12;99446.88;5023235;28;20035;-86
2022/05/01 11:14:49;;;;;;;6.72;4.82;;;;;;;16.57;53.88;99446.09;5023558;28;20025;-86
2022/05/01 11:17:26;;;;;;;5.97;4.45;;;;;;;16.70;53.70;99447.41;5030308;28;20025;-86
2022/05/01 11:19:52;;;;;;;7.60;4.72;;;;;;;16.88;53.64;99444.13;5010687;28;20067;-86
2022/05/01 11:22:27;;;;;;;9.43;5.38;;;;;;;17.00;53.37;99436.53;4979390;28;20068;-86
2022/05/01 11:24:52;;;;;;;7.13;4.57;;;;;;;17.05;53.17;99440.03;4995639;28;20411;-86
2022/05/01 11:27:18;;;;;;;8.10;5.00;;;;;;;17.02;52.86;99434.38;4973989;28;20666;-86
2022/05/01 11:30:06;;;;;;;9.75;4.60;;;;;;;17.07;52.78;99437.03;5029050;28;20090;-86
2022/05/01 11:32:45;;;;;;;7.75;5.25;;;;;;;17.06;53.07;99428.13;5012933;28;20021;-86
2022/05/01 11:35:11;;;;;;;8.15;4.22;;;;;;;16.94;53.18;99408.78;5008806;28;20116;-87
2022/05/01 11:37:48;;;;;;;8.05;5.25;;;;;;;17.08;52.77;99411.69;5011694;28;20083;-85
2022/05/01 11:40:31;;;;;;;10.30;5.38;;;;;;;17.08;52.74;99417.88;5030386;28;20036;-85
2022/05/01 11:43:30;;;;;;;9.35;4.80;;;;;;;17.15;52.77;99420.28;5030068;28;20087;-85
2022/05/01 11:45:57;;;;;;;9.23;4.50;;;;;;;17.14;52.98;99419.50;4984391;28;20040;-85
2022/05/01 11:48:22;;;;;;;10.13;5.20;;;;;;;17.30;53.06;99417.50;5006174;28;20650;-85
2022/05/01 11:50:51;;;;;;;6.88;4.63;;;;;;;17.58;52.18;99410.63;4999106;28;20036;-85
2022/05/01 11:53:23;;;;;;;10.20;6.10;;;;;;;17.70;52.49;99411.09;5013028;28;20044;-85
2022/05/01 12:04:26;;;;;;;9.75;5.60;;;;;;;17.91;51.90;99413.34;5011055;28;20067;-84
2022/05/01 12:06:58;;;;;;;5.93;4.60;;;;;;;17.88;51.53;99411.22;5008202;28;20352;-84
2022/05/01 12:09:26;;;;;;;6.82;4.88;;;;;;;17.84;51.76;99409.38;5008927;28;20025;-84